Airfield :
LOGIN :

Register | Disclaimer

   EN    FR    IT 

 










Legend :    VFR   Marginal VFR   IFR   Intensive IFR   Very Intensive IFR
Visi :
Ceiling :
>= 8 km
>= 3000ft
5 to 8 km
1000 to 3000 ft
1500m to 5 km
500 to 1000 ft
800 to 1500m
200 to 500 ft
< 800m
< 200 ft
Symbols :   Thunderstorms  Fog  Heavy snow  Heavy precipitations  Wind > 20 kt
SIGMETs :     Misc.  Thunderstorms  Icing  Turbulence  Mountain Waves  Volcanic Ashes






- Airport Elevation : 602 ft
- IATA code : NVS


LFQG - Nevers

CURRENT METAR :
  • 131000Z AUTO 27021G35KT 9999 BKN038 BKN046 BKN054 08/03 Q0991

EXPIRED METARs :
  • 130930Z AUTO 27017KT 240V300 9999 BKN037 BKN043 08/03 Q0990
  • 130900Z AUTO 26016G26KT 220V280 9999 FEW028 BKN034 BKN040 08/03 Q0989
  • 130830Z AUTO 26013KT 9999 FEW028 BKN100 08/04 Q0989
  • 130800Z AUTO 26012KT 230V290 9999 FEW025 BKN031 BKN038 07/04 Q0988
  • 130730Z AUTO 26016G30KT 210V280 9999 FEW027 BKN034 BKN044 07/04 Q0987

TAF N/A



MET'MAP, your aeronautical weather chart ! - Copyright ORBIFLY December 2007 - Disclaimer

ORBIFLY MET'MAP TEAM :

Programming & Development : Alexandra Zaïnal
Concept & original design : Baudouin d'Aumeries
Assistance for programming : Marc-Olivier Méhu
Technical & hardware support : Manuel Goepfert

Contact : metmap@orbifly.com




SOURCES & CREDITS :

   NOAA